createdAt,value
2022-10-13T00:00:22.315Z,98590.00
2022-10-13T00:03:03.270Z,98597.00
2022-10-13T00:05:44.460Z,98600.00
2022-10-13T00:08:22.152Z,98594.00
2022-10-13T00:10:57.011Z,98610.00
2022-10-13T00:13:31.886Z,98604.00
2022-10-13T00:16:07.779Z,98614.00
2022-10-13T00:18:43.203Z,98609.00
2022-10-13T00:21:23.003Z,98607.00
2022-10-13T00:23:57.975Z,98603.00
2022-10-13T00:26:32.872Z,98603.00
2022-10-13T00:29:08.322Z,98615.00
2022-10-13T00:31:43.196Z,98614.00
2022-10-13T00:34:18.109Z,98612.00
2022-10-13T00:36:53.031Z,98607.00
2022-10-13T00:39:27.916Z,98607.00
2022-10-13T00:42:02.896Z,98605.00
2022-10-13T00:45:17.484Z,98602.00
2022-10-13T00:47:59.061Z,98601.00
2022-10-13T00:50:41.360Z,98597.00
2022-10-13T00:53:21.469Z,98600.00
2022-10-13T00:55:56.658Z,98600.00
2022-10-13T00:58:31.742Z,98600.00
2022-10-13T01:01:07.437Z,98596.00
2022-10-13T01:03:42.425Z,98603.00
2022-10-13T01:06:23.481Z,98592.00
2022-10-13T01:08:58.780Z,98591.00
2022-10-13T01:12:01.175Z,98593.00
2022-10-13T01:14:52.221Z,98592.00
2022-10-13T01:17:28.772Z,98593.00
2022-10-13T01:20:34.332Z,98593.00
2022-10-13T01:23:40.873Z,98588.00
2022-10-13T01:26:52.386Z,98590.00
2022-10-13T01:30:03.517Z,98593.00
2022-10-13T01:33:12.105Z,98586.00
2022-10-13T01:36:07.100Z,98579.00
2022-10-13T01:39:08.520Z,98591.00
2022-10-13T01:41:50.037Z,98578.00
2022-10-13T01:44:36.312Z,98572.00
2022-10-13T01:47:14.620Z,98568.00
2022-10-13T01:49:52.889Z,98570.00
2022-10-13T01:52:35.286Z,98568.00
2022-10-13T01:55:12.834Z,98562.00
2022-10-13T01:57:47.694Z,98565.00
2022-10-13T02:00:23.728Z,98570.00
2022-10-13T02:03:21.721Z,98554.00
2022-10-13T02:06:08.717Z,98560.00
2022-10-13T02:08:59.008Z,98561.00
2022-10-13T02:11:34.033Z,98558.00
2022-10-13T02:14:18.101Z,98562.00
2022-10-13T02:16:55.453Z,98559.00
2022-10-13T02:19:35.163Z,98561.00
2022-10-13T02:22:13.517Z,98559.00
2022-10-13T02:24:48.820Z,98565.00
2022-10-13T02:27:23.894Z,98567.00
2022-10-13T02:29:58.807Z,98572.00
2022-10-13T02:32:37.480Z,98570.00
2022-10-13T02:35:12.367Z,98571.00
2022-10-13T02:37:47.460Z,98576.00
2022-10-13T02:40:22.449Z,98564.00
2022-10-13T02:42:57.363Z,98565.00
2022-10-13T02:45:32.244Z,98567.00
2022-10-13T02:48:07.123Z,98560.00
2022-10-13T02:50:42.006Z,98563.00
2022-10-13T02:53:16.939Z,98567.00
2022-10-13T02:55:51.790Z,98565.00
2022-10-13T02:58:26.948Z,98555.00
2022-10-13T03:01:11.930Z,98555.00
2022-10-13T03:03:46.843Z,98562.00
2022-10-13T03:06:21.959Z,98561.00
2022-10-13T03:08:56.876Z,98562.00
2022-10-13T03:11:31.769Z,98558.00
2022-10-13T03:14:06.629Z,98554.00
2022-10-13T03:16:41.491Z,98558.00
2022-10-13T03:19:18.075Z,98557.00
2022-10-13T03:21:52.930Z,98547.00
2022-10-13T03:24:27.788Z,98553.00
2022-10-13T03:27:02.660Z,98536.00
2022-10-13T03:29:37.592Z,98539.00
2022-10-13T03:32:12.556Z,98538.00
2022-10-13T03:34:47.411Z,98538.00
2022-10-13T03:37:22.274Z,98534.00
2022-10-13T03:39:57.105Z,98523.00
2022-10-13T03:42:31.984Z,98518.00
2022-10-13T03:45:07.636Z,98523.00
2022-10-13T03:47:43.910Z,98518.00
2022-10-13T03:50:18.970Z,98519.00
2022-10-13T03:52:53.839Z,98525.00
2022-10-13T03:55:28.729Z,98518.00
2022-10-13T03:58:03.677Z,98536.00
2022-10-13T04:00:38.859Z,98529.00
2022-10-13T04:03:14.239Z,98530.00
2022-10-13T04:05:49.130Z,98522.00
2022-10-13T04:08:24.856Z,98530.00
2022-10-13T04:11:05.552Z,98536.00
2022-10-13T04:13:41.687Z,98530.00
2022-10-13T04:16:20.682Z,98536.00
2022-10-13T04:19:00.683Z,98534.00
2022-10-13T04:21:35.817Z,98516.00
2022-10-13T04:24:13.385Z,98515.00
2022-10-13T04:26:48.337Z,98525.00
2022-10-13T04:29:23.459Z,98516.00
2022-10-13T04:32:00.356Z,98519.00
2022-10-13T04:34:35.523Z,98526.00
2022-10-13T04:37:10.576Z,98522.00
2022-10-13T04:39:45.563Z,98518.00
2022-10-13T04:42:20.751Z,98519.00
2022-10-13T04:44:56.001Z,98529.00
2022-10-13T04:47:36.781Z,98520.00
2022-10-13T04:50:11.974Z,98517.00
2022-10-13T04:52:46.911Z,98512.00
2022-10-13T04:55:21.819Z,98512.00
2022-10-13T04:57:56.671Z,98506.00
2022-10-13T05:00:31.630Z,98500.00
2022-10-13T05:03:06.522Z,98501.00
2022-10-13T05:05:42.191Z,98494.00
2022-10-13T05:08:17.131Z,98495.00
2022-10-13T05:11:01.397Z,98497.00
2022-10-13T05:13:36.623Z,98504.00
2022-10-13T05:16:14.131Z,98510.00
2022-10-13T05:18:50.722Z,98512.00
2022-10-13T05:21:28.747Z,98508.00
2022-10-13T05:24:06.004Z,98504.00
2022-10-13T05:26:41.827Z,98515.00
2022-10-13T05:29:18.136Z,98513.00
2022-10-13T05:31:53.101Z,98507.00
2022-10-13T05:34:28.174Z,98522.00
2022-10-13T05:37:03.189Z,98512.00
2022-10-13T05:39:38.671Z,98516.00
2022-10-13T05:42:13.883Z,98520.00
2022-10-13T05:44:48.857Z,98520.00
2022-10-13T05:47:28.074Z,98522.00
2022-10-13T05:50:04.483Z,98519.00
2022-10-13T05:52:39.811Z,98524.00
2022-10-13T05:55:17.375Z,98523.00
2022-10-13T05:57:52.793Z,98525.00
2022-10-13T06:00:28.975Z,98507.00
2022-10-13T06:03:11.795Z,98501.00
2022-10-13T06:05:51.676Z,98505.00
2022-10-13T06:08:26.755Z,98497.00
2022-10-13T06:11:03.661Z,98497.00
2022-10-13T06:13:38.627Z,98495.00
2022-10-13T06:16:13.566Z,98493.00
2022-10-13T06:18:48.457Z,98495.00
2022-10-13T06:21:23.385Z,98491.00
2022-10-13T06:23:58.419Z,98494.00
2022-10-13T06:26:33.360Z,98491.00
2022-10-13T06:29:08.390Z,98497.00
2022-10-13T06:31:43.340Z,98503.00
2022-10-13T06:34:20.213Z,98511.00
2022-10-13T06:36:55.675Z,98509.00
2022-10-13T06:39:30.505Z,98503.00
2022-10-13T06:42:09.122Z,98503.00
2022-10-13T06:44:46.807Z,98502.00
2022-10-13T06:47:22.097Z,98506.00
2022-10-13T06:49:57.010Z,98503.00
2022-10-13T06:52:31.882Z,98500.00
2022-10-13T06:55:08.199Z,98493.00
2022-10-13T06:57:43.050Z,98495.00
2022-10-13T07:00:18.263Z,98492.00
2022-10-13T07:02:54.643Z,98488.00
2022-10-13T07:05:30.129Z,98493.00
2022-10-13T07:08:05.122Z,98498.00
2022-10-13T07:10:40.925Z,98500.00
2022-10-13T07:13:15.880Z,98503.00
2022-10-13T07:15:50.893Z,98507.00
2022-10-13T07:18:25.863Z,98505.00
2022-10-13T07:21:02.256Z,98499.00
2022-10-13T07:23:37.178Z,98497.00
2022-10-13T07:26:15.834Z,98497.00
2022-10-13T07:28:50.937Z,98499.00
2022-10-13T07:31:26.769Z,98492.00
2022-10-13T07:34:02.181Z,98490.00
2022-10-13T07:36:40.638Z,98489.00
2022-10-13T07:39:15.507Z,98488.00
2022-10-13T07:41:51.395Z,98491.00
2022-10-13T07:44:26.578Z,98491.00
2022-10-13T07:47:01.485Z,98488.00
2022-10-13T07:49:36.686Z,98487.00
2022-10-13T07:52:12.121Z,98499.00
2022-10-13T07:54:47.096Z,98497.00
2022-10-13T07:57:22.166Z,98496.00
2022-10-13T07:59:57.107Z,98496.00
2022-10-13T08:02:33.066Z,98488.00
2022-10-13T08:05:08.983Z,98484.00
2022-10-13T08:07:44.362Z,98482.00
2022-10-13T08:10:20.087Z,98486.00
2022-10-13T08:12:55.187Z,98478.00
2022-10-13T08:15:30.366Z,98488.00
2022-10-13T08:18:05.295Z,98477.00
2022-10-13T08:20:45.362Z,98468.00
2022-10-13T08:23:20.376Z,98463.00
2022-10-13T08:25:58.541Z,98457.00
2022-10-13T08:28:33.477Z,98458.00
2022-10-13T08:31:08.677Z,98459.00
2022-10-13T08:33:47.202Z,98465.00
2022-10-13T08:36:24.916Z,98467.00
2022-10-13T08:38:59.851Z,98458.00
2022-10-13T08:41:44.087Z,98458.00
2022-10-13T08:47:47.406Z,98458.00
2022-10-13T08:50:28.114Z,98462.00
2022-10-13T08:53:11.586Z,98456.00
2022-10-13T08:55:58.323Z,98459.00
2022-10-13T08:58:37.391Z,98451.00
2022-10-13T09:01:30.702Z,98458.00
2022-10-13T09:04:29.953Z,98456.00
2022-10-13T09:07:31.966Z,98450.00
2022-10-13T09:10:08.290Z,98447.00
2022-10-13T09:12:43.249Z,98447.00
2022-10-13T09:15:19.558Z,98452.00
2022-10-13T09:18:10.873Z,98451.00
2022-10-13T09:20:45.960Z,98452.00
2022-10-13T09:23:25.568Z,98444.00
2022-10-13T09:26:09.417Z,98448.00
2022-10-13T09:28:45.886Z,98460.00
2022-10-13T09:31:27.747Z,98460.00
2022-10-13T09:34:14.250Z,98458.00
2022-10-13T09:37:03.282Z,98455.00
2022-10-13T09:39:38.246Z,98453.00
2022-10-13T09:42:27.822Z,98455.00
2022-10-13T09:45:19.449Z,98447.00
2022-10-13T09:48:07.852Z,98455.00
2022-10-13T09:50:49.977Z,98466.00
2022-10-13T09:53:34.354Z,98458.00
2022-10-13T09:56:30.546Z,98455.00
2022-10-13T09:59:21.870Z,98442.00
2022-10-13T10:01:58.507Z,98444.00
2022-10-13T10:04:38.733Z,98436.00
2022-10-13T10:07:21.831Z,98437.00
2022-10-13T10:10:35.736Z,98443.00
2022-10-13T10:13:15.622Z,98446.00
2022-10-13T10:16:12.428Z,98441.00
2022-10-13T10:19:06.545Z,98440.00
2022-10-13T10:21:50.360Z,98450.00
2022-10-13T10:25:07.701Z,98446.00
2022-10-13T10:27:50.141Z,98445.00
2022-10-13T10:30:25.071Z,98447.00
2022-10-13T10:33:02.645Z,98441.00
2022-10-13T10:35:49.254Z,98435.00
2022-10-13T10:38:43.366Z,98439.00
2022-10-13T10:41:41.190Z,98435.00
2022-10-13T10:44:35.392Z,98431.00
2022-10-13T10:47:40.211Z,98435.00
2022-10-13T10:50:18.259Z,98423.00
2022-10-13T10:53:16.293Z,98422.00
2022-10-13T10:55:57.075Z,98420.00
2022-10-13T10:59:02.197Z,98402.00
2022-10-13T11:02:24.590Z,98415.00
2022-10-13T11:05:05.296Z,98403.00
2022-10-13T11:07:45.414Z,98402.00
2022-10-13T11:10:22.673Z,98394.00
2022-10-13T11:12:57.632Z,98390.00
2022-10-13T11:15:45.583Z,98393.00
2022-10-13T11:18:54.614Z,98386.00
2022-10-13T11:21:54.750Z,98372.00
2022-10-13T11:24:41.863Z,98372.00
2022-10-13T11:27:32.519Z,98379.00
2022-10-13T11:30:50.426Z,98367.00
2022-10-13T11:33:40.214Z,98377.00
2022-10-13T11:36:48.122Z,98372.00
2022-10-13T11:39:28.883Z,98366.00
2022-10-13T11:42:19.862Z,98353.00
2022-10-13T11:45:01.685Z,98350.00
2022-10-13T11:48:22.784Z,98343.00
2022-10-13T11:51:23.579Z,98349.00
2022-10-13T11:54:15.714Z,98344.00
2022-10-13T11:56:51.848Z,98339.00
2022-10-13T11:59:37.656Z,98342.00
2022-10-13T12:02:16.032Z,98343.00
2022-10-13T12:05:08.768Z,98329.00
2022-10-13T12:07:48.250Z,98323.00
2022-10-13T12:10:38.014Z,98324.00
2022-10-13T12:13:25.621Z,98323.00
2022-10-13T12:16:06.157Z,98327.00
2022-10-13T12:18:41.471Z,98313.00
2022-10-13T12:21:21.142Z,98308.00
2022-10-13T12:24:08.634Z,98310.00
2022-10-13T12:26:43.821Z,98294.00
2022-10-13T12:29:25.282Z,98298.00
2022-10-13T12:32:00.270Z,98285.00
2022-10-13T12:34:36.416Z,98288.00
2022-10-13T12:37:28.570Z,98282.00
2022-10-13T12:40:05.053Z,98285.00
2022-10-13T12:42:40.097Z,98280.00
2022-10-13T12:45:19.054Z,98266.00
2022-10-13T12:47:55.102Z,98280.00
2022-10-13T12:50:38.073Z,98267.00
2022-10-13T12:53:18.202Z,98274.00
2022-10-13T12:56:01.994Z,98267.00
2022-10-13T12:58:37.012Z,98256.00
2022-10-13T13:01:15.029Z,98258.00
2022-10-13T13:03:58.888Z,98248.00
2022-10-13T13:06:37.924Z,98253.00
2022-10-13T13:09:27.527Z,98261.00
2022-10-13T13:12:11.156Z,98263.00
2022-10-13T13:14:53.547Z,98259.00
2022-10-13T13:17:56.549Z,98271.00
2022-10-13T13:20:29.879Z,98267.00
2022-10-13T13:23:05.631Z,98256.00
2022-10-13T13:25:41.334Z,98250.00
2022-10-13T13:28:16.676Z,98257.00
2022-10-13T13:30:51.687Z,98250.00
2022-10-13T13:33:26.677Z,98254.00
2022-10-13T13:36:02.325Z,98257.00
2022-10-13T13:38:37.283Z,98260.00
2022-10-13T13:41:13.935Z,98253.00
2022-10-13T13:43:49.396Z,98251.00
2022-10-13T13:46:27.608Z,98254.00
2022-10-13T13:49:03.122Z,98250.00
2022-10-13T13:51:38.000Z,98251.00
2022-10-13T13:54:12.904Z,98254.00
2022-10-13T13:56:48.017Z,98252.00
2022-10-13T13:59:23.686Z,98255.00
2022-10-13T14:02:01.129Z,98253.00
2022-10-13T14:04:38.453Z,98253.00
2022-10-13T14:07:13.787Z,98253.00
2022-10-13T14:09:48.778Z,98241.00
2022-10-13T14:12:23.822Z,98239.00
2022-10-13T14:14:58.730Z,98238.00
2022-10-13T14:17:33.623Z,98239.00
2022-10-13T14:20:09.457Z,98237.00
2022-10-13T14:22:45.920Z,98241.00
2022-10-13T14:25:21.796Z,98237.00
2022-10-13T14:27:56.747Z,98229.00
2022-10-13T14:30:31.683Z,98239.00
2022-10-13T14:33:06.655Z,98226.00
2022-10-13T14:35:41.520Z,98240.00
2022-10-13T14:38:18.072Z,98229.00
2022-10-13T14:41:00.975Z,98229.00
2022-10-13T14:43:35.941Z,98231.00
2022-10-13T14:46:11.004Z,98243.00
2022-10-13T14:48:46.527Z,98245.00
2022-10-13T14:51:21.458Z,98247.00
2022-10-13T14:53:56.366Z,98247.00
2022-10-13T14:56:31.332Z,98241.00
2022-10-13T14:59:07.660Z,98245.00
2022-10-13T15:01:47.488Z,98249.00
2022-10-13T15:04:22.622Z,98244.00
2022-10-13T15:06:58.011Z,98247.00
2022-10-13T15:09:45.387Z,98244.00
2022-10-13T15:12:28.294Z,98230.00
2022-10-13T15:15:03.821Z,98239.00
2022-10-13T15:17:38.932Z,98227.00
2022-10-13T15:20:14.576Z,98245.00
2022-10-13T15:22:49.520Z,98251.00
2022-10-13T15:25:25.419Z,98257.00
2022-10-13T15:28:00.327Z,98249.00
2022-10-13T15:30:35.271Z,98248.00
2022-10-13T15:33:17.482Z,98250.00
2022-10-13T15:35:53.665Z,98252.00
2022-10-13T15:38:28.656Z,98245.00
2022-10-13T15:41:05.622Z,98245.00
2022-10-13T15:43:40.643Z,98253.00
2022-10-13T15:46:24.326Z,98249.00
2022-10-13T15:48:59.950Z,98250.00
2022-10-13T15:51:34.890Z,98254.00
2022-10-13T15:54:09.812Z,98250.00
2022-10-13T15:56:45.240Z,98258.00
2022-10-13T15:59:20.278Z,98253.00
2022-10-13T16:01:55.269Z,98249.00
2022-10-13T16:04:34.842Z,98247.00
2022-10-13T16:07:12.209Z,98259.00
2022-10-13T16:09:47.159Z,98251.00
2022-10-13T16:12:24.207Z,98255.00
2022-10-13T16:14:59.086Z,98255.00
2022-10-13T16:17:34.541Z,98247.00
2022-10-13T16:20:10.762Z,98234.00
2022-10-13T16:22:45.745Z,98250.00
2022-10-13T16:25:20.692Z,98254.00
2022-10-13T16:27:55.732Z,98275.00
2022-10-13T16:30:30.688Z,98274.00
2022-10-13T16:33:05.621Z,98265.00
2022-10-13T16:35:40.515Z,98263.00
2022-10-13T16:38:15.478Z,98255.00
2022-10-13T16:40:50.347Z,98249.00
2022-10-13T16:43:25.251Z,98261.00
2022-10-13T16:46:04.258Z,98269.00
2022-10-13T16:48:43.161Z,98265.00
2022-10-13T16:51:24.851Z,98264.00
2022-10-13T16:54:04.155Z,98266.00
2022-10-13T16:56:39.612Z,98256.00
2022-10-13T16:59:14.677Z,98248.00
2022-10-13T17:01:49.672Z,98248.00
2022-10-13T17:04:24.736Z,98252.00
2022-10-13T17:07:00.205Z,98254.00
2022-10-13T17:09:35.171Z,98251.00
2022-10-13T17:12:10.163Z,98250.00
2022-10-13T17:14:45.148Z,98250.00
2022-10-13T17:17:20.198Z,98254.00
2022-10-13T17:19:55.227Z,98253.00
2022-10-13T17:22:30.385Z,98251.00
2022-10-13T17:25:06.327Z,98247.00
2022-10-13T17:27:41.224Z,98247.00
2022-10-13T17:30:16.230Z,98249.00
2022-10-13T17:32:52.118Z,98245.00
2022-10-13T17:35:27.019Z,98249.00
2022-10-13T17:38:02.006Z,98241.00
2022-10-13T17:40:36.978Z,98252.00
2022-10-13T17:43:12.335Z,98257.00
2022-10-13T17:45:47.289Z,98252.00
2022-10-13T17:48:23.367Z,98250.00
2022-10-13T17:51:06.289Z,98240.00
2022-10-13T17:53:43.293Z,98246.00
2022-10-13T17:56:23.753Z,98249.00
2022-10-13T17:59:00.872Z,98258.00
2022-10-13T18:01:36.406Z,98253.00
2022-10-13T18:04:15.186Z,98258.00
2022-10-13T18:06:51.150Z,98258.00
2022-10-13T18:09:26.824Z,98264.00
2022-10-13T18:12:01.749Z,98257.00
2022-10-13T18:14:37.568Z,98251.00
2022-10-13T18:17:12.594Z,98256.00
2022-10-13T18:19:49.208Z,98246.00
2022-10-13T18:22:24.844Z,98241.00
2022-10-13T18:25:01.562Z,98255.00
2022-10-13T18:27:36.480Z,98258.00
2022-10-13T18:30:12.518Z,98254.00
2022-10-13T18:32:47.349Z,98261.00
2022-10-13T18:35:22.435Z,98252.00
2022-10-13T18:37:57.353Z,98253.00
2022-10-13T18:40:32.931Z,98256.00
2022-10-13T18:43:08.668Z,98257.00
2022-10-13T18:45:43.677Z,98270.00
2022-10-13T18:48:19.803Z,98259.00
2022-10-13T18:50:54.764Z,98272.00
2022-10-13T18:53:29.740Z,98262.00
2022-10-13T18:56:13.399Z,98261.00
2022-10-13T18:58:49.408Z,98253.00
2022-10-13T19:01:27.123Z,98258.00
2022-10-13T19:04:02.276Z,98256.00
2022-10-13T19:06:38.244Z,98252.00
2022-10-13T19:09:17.580Z,98246.00
2022-10-13T19:11:55.519Z,98246.00
2022-10-13T19:14:31.538Z,98251.00
2022-10-13T19:17:06.722Z,98253.00
2022-10-13T19:19:42.866Z,98250.00
2022-10-13T19:22:17.826Z,98242.00
2022-10-13T19:24:52.763Z,98247.00
2022-10-13T19:27:28.112Z,98255.00
2022-10-13T19:30:03.457Z,98247.00
2022-10-13T19:32:39.851Z,98251.00
2022-10-13T19:35:14.756Z,98241.00
2022-10-13T19:37:49.591Z,98251.00
2022-10-13T19:40:24.423Z,98246.00
2022-10-13T19:42:59.306Z,98252.00
2022-10-13T19:45:34.218Z,98257.00
2022-10-13T19:48:09.061Z,98250.00
2022-10-13T19:50:43.925Z,98261.00
2022-10-13T19:53:21.657Z,98258.00
2022-10-13T19:55:56.565Z,98264.00
2022-10-13T19:58:32.089Z,98267.00
2022-10-13T20:01:08.349Z,98269.00
2022-10-13T20:03:43.429Z,98265.00
2022-10-13T20:06:19.788Z,98271.00
2022-10-13T20:08:54.721Z,98270.00
2022-10-13T20:11:29.699Z,98275.00
2022-10-13T20:14:04.688Z,98279.00
2022-10-13T20:16:39.750Z,98271.00
2022-10-13T20:19:19.375Z,98270.00
2022-10-13T20:21:56.341Z,98265.00
2022-10-13T20:24:31.487Z,98261.00
2022-10-13T20:27:06.555Z,98274.00
2022-10-13T20:29:42.140Z,98280.00
2022-10-13T20:32:17.415Z,98283.00
2022-10-13T20:34:52.348Z,98284.00
2022-10-13T20:37:28.456Z,98290.00
2022-10-13T20:40:03.751Z,98287.00
2022-10-13T20:42:39.822Z,98295.00
2022-10-13T20:45:14.790Z,98296.00
2022-10-13T20:47:50.081Z,98289.00
2022-10-13T20:50:25.764Z,98284.00
2022-10-13T20:53:00.697Z,98282.00
2022-10-13T20:55:39.447Z,98275.00
2022-10-13T20:58:16.857Z,98270.00
2022-10-13T21:00:51.987Z,98271.00
2022-10-13T21:03:27.637Z,98270.00
2022-10-13T21:06:04.736Z,98275.00
2022-10-13T21:08:40.677Z,98267.00
2022-10-13T21:11:18.207Z,98264.00
2022-10-13T21:13:53.556Z,98264.00
2022-10-13T21:16:29.061Z,98271.00
2022-10-13T21:19:04.644Z,98265.00
2022-10-13T21:21:39.647Z,98265.00
2022-10-13T21:24:14.618Z,98269.00
2022-10-13T21:26:49.585Z,98272.00
2022-10-13T21:29:24.763Z,98270.00
2022-10-13T21:31:59.612Z,98281.00
2022-10-13T21:34:34.466Z,98283.00
2022-10-13T21:37:09.363Z,98279.00
2022-10-13T21:39:44.222Z,98280.00
2022-10-13T21:42:19.440Z,98287.00
2022-10-13T21:44:54.430Z,98275.00
2022-10-13T21:47:34.503Z,98274.00
2022-10-13T21:50:09.756Z,98279.00
2022-10-13T21:52:44.716Z,98279.00
2022-10-13T21:55:19.663Z,98282.00
2022-10-13T21:57:59.620Z,98284.00
2022-10-13T22:00:38.713Z,98283.00
2022-10-13T22:03:13.663Z,98282.00
2022-10-13T22:05:48.624Z,98281.00
2022-10-13T22:08:52.385Z,98282.00
2022-10-13T22:11:34.225Z,98285.00
2022-10-13T22:14:13.764Z,98280.00
2022-10-13T22:16:51.152Z,98271.00
2022-10-13T22:19:26.104Z,98282.00
2022-10-13T22:22:01.144Z,98285.00
2022-10-13T22:24:36.010Z,98290.00
2022-10-13T22:27:10.870Z,98292.00
2022-10-13T22:29:46.845Z,98283.00
2022-10-13T22:32:21.775Z,98287.00
2022-10-13T22:34:56.705Z,98279.00
2022-10-13T22:37:31.737Z,98280.00
2022-10-13T22:40:08.630Z,98279.00
2022-10-13T22:42:43.542Z,98278.00
2022-10-13T22:45:18.509Z,98286.00
2022-10-13T22:47:53.642Z,98286.00
2022-10-13T22:50:29.542Z,98282.00
2022-10-13T22:53:04.401Z,98285.00
2022-10-13T22:55:41.813Z,98287.00
2022-10-13T22:58:16.688Z,98280.00
2022-10-13T23:00:51.623Z,98286.00
2022-10-13T23:03:26.552Z,98286.00
2022-10-13T23:06:02.097Z,98290.00
2022-10-13T23:08:36.932Z,98283.00
2022-10-13T23:11:11.972Z,98280.00
2022-10-13T23:13:47.317Z,98278.00
2022-10-13T23:16:25.302Z,98278.00
2022-10-13T23:19:00.321Z,98261.00
2022-10-13T23:21:35.223Z,98270.00
2022-10-13T23:24:11.251Z,98269.00
2022-10-13T23:26:46.087Z,98268.00
2022-10-13T23:29:21.032Z,98271.00
2022-10-13T23:31:55.890Z,98268.00
2022-10-13T23:34:30.731Z,98266.00
2022-10-13T23:37:05.622Z,98266.00
2022-10-13T23:39:40.437Z,98270.00
2022-10-13T23:42:15.421Z,98271.00
2022-10-13T23:44:50.372Z,98274.00
2022-10-13T23:47:25.207Z,98274.00
2022-10-13T23:50:00.069Z,98262.00
2022-10-13T23:52:34.950Z,98256.00
2022-10-13T23:55:09.828Z,98274.00
2022-10-13T23:57:44.660Z,98262.00
